Time,TemperatureF,DewpointF,PressureIn,WindDirection,WindDirectionDegrees,WindSpeedMPH,WindSpeedGustMPH,Humidity,HourlyPrecipIn,Conditions,Clouds,dailyrainin,SolarRadiationWatts/m^2,SoftwareType,DateUTC
2013-02-24 00:01:00,28.0,27.0,-100.00,NNW,332,2.0,5.0,97,0.00,,,0.35,0.000000,,2013-02-24 07:01:00,
2013-02-24 00:11:00,28.0,27.0,-100.00,NNW,332,2.0,5.0,97,0.00,,,0.35,0.000000,,2013-02-24 07:11:00,
2013-02-24 00:21:00,28.0,27.0,-100.00,NNW,332,2.0,5.0,97,0.00,,,0.35,0.000000,,2013-02-24 07:21:00,
2013-02-24 00:31:00,28.0,27.0,-100.00,NNW,332,2.0,5.0,97,0.00,,,0.35,0.000000,,2013-02-24 07:31:00,
2013-02-24 00:41:00,28.0,27.0,-100.00,NNW,332,2.0,5.0,97,0.00,,,0.35,0.000000,,2013-02-24 07:41:00,
2013-02-24 01:01:00,28.0,27.0,-100.00,NW,323,4.0,6.0,97,0.00,,,0.35,0.000000,,2013-02-24 08:01:00,
2013-02-24 01:11:00,28.0,27.0,-100.00,NW,323,4.0,6.0,97,0.00,,,0.35,0.000000,,2013-02-24 08:11:00,
2013-02-24 01:22:00,28.0,27.0,-100.00,NW,323,4.0,6.0,97,0.00,,,0.35,0.000000,,2013-02-24 08:22:00,
2013-02-24 01:31:00,28.0,27.0,-100.00,NW,323,4.0,6.0,97,0.00,,,0.35,0.000000,,2013-02-24 08:31:00,
2013-02-24 01:41:00,28.0,27.0,-100.00,NW,323,4.0,6.0,97,0.00,,,0.35,0.000000,,2013-02-24 08:41:00,
2013-02-24 02:01:00,27.0,26.0,-100.00,NE,44,1.0,3.0,97,0.00,,,-99.99,0.000000,,2013-02-24 09:01:00,
2013-02-24 02:11:00,27.0,26.0,-100.00,NE,44,1.0,3.0,97,0.00,,,-99.99,0.000000,,2013-02-24 09:11:00,
2013-02-24 02:21:00,27.0,26.0,-100.00,NE,44,1.0,3.0,97,0.00,,,-99.99,0.000000,,2013-02-24 09:21:00,
2013-02-24 02:31:00,27.0,26.0,-100.00,NE,44,1.0,3.0,97,0.00,,,-99.99,0.000000,,2013-02-24 09:31:00,
2013-02-24 02:41:00,27.0,26.0,-100.00,NE,44,1.0,3.0,97,0.00,,,-99.99,0.000000,,2013-02-24 09:41:00,
2013-02-24 03:01:00,27.0,26.0,-100.00,NNE,25,2.0,5.0,94,0.00,,,0.35,0.000000,,2013-02-24 10:01:00,
2013-02-24 03:11:00,27.0,26.0,-100.00,NNE,25,2.0,5.0,94,0.00,,,0.35,0.000000,,2013-02-24 10:11:00,
2013-02-24 03:21:00,27.0,26.0,-100.00,NNE,25,2.0,5.0,94,0.00,,,0.35,0.000000,,2013-02-24 10:21:00,
2013-02-24 03:31:00,27.0,26.0,-100.00,NNE,25,2.0,5.0,94,0.00,,,0.35,0.000000,,2013-02-24 10:31:00,
2013-02-24 03:41:00,27.0,26.0,-100.00,NNE,25,2.0,5.0,94,0.00,,,0.35,0.000000,,2013-02-24 10:41:00,
2013-02-24 04:01:00,26.0,24.0,-100.00,NE,51,3.0,7.0,93,0.00,,,0.35,0.000000,,2013-02-24 11:01:00,
2013-02-24 04:11:00,26.0,24.0,-100.00,NE,51,3.0,7.0,93,0.00,,,0.35,0.000000,,2013-02-24 11:11:00,
2013-02-24 04:21:00,26.0,24.0,-100.00,NE,51,3.0,7.0,93,0.00,,,0.35,0.000000,,2013-02-24 11:21:00,
2013-02-24 04:32:00,26.0,24.0,-100.00,NE,51,3.0,7.0,93,0.00,,,0.35,0.000000,,2013-02-24 11:32:00,
2013-02-24 04:41:00,26.0,24.0,-100.00,NE,51,3.0,7.0,93,0.00,,,0.35,0.000000,,2013-02-24 11:41:00,
2013-02-24 05:01:00,26.0,23.0,-100.00,NNE,29,3.0,7.0,89,0.00,,,0.35,0.000000,,2013-02-24 12:01:00,
2013-02-24 05:11:00,26.0,23.0,-100.00,NNE,29,3.0,7.0,89,0.00,,,0.35,0.000000,,2013-02-24 12:11:00,
2013-02-24 05:21:00,26.0,23.0,-100.00,NNE,29,3.0,7.0,89,0.00,,,0.35,0.000000,,2013-02-24 12:21:00,
2013-02-24 05:32:00,26.0,23.0,-100.00,NNE,29,3.0,7.0,89,0.00,,,0.35,0.000000,,2013-02-24 12:32:00,
2013-02-24 05:42:00,24.0,21.0,-100.00,East,81,1.0,7.0,89,0.00,,,0.35,0.000000,,2013-02-24 12:42:00,
2013-02-24 06:15:00,24.0,21.0,-100.00,East,81,1.0,7.0,89,0.00,,,0.35,0.000000,,2013-02-24 13:15:00,
2013-02-24 06:24:00,24.0,21.0,-100.00,East,81,1.0,7.0,89,0.00,,,0.35,0.000000,,2013-02-24 13:24:00,
2013-02-24 06:33:00,24.0,21.0,-100.00,East,81,1.0,7.0,89,0.00,,,0.35,0.000000,,2013-02-24 13:33:00,
2013-02-24 06:42:00,23.0,20.0,-100.00,NE,44,3.0,9.0,89,0.00,,,0.35,0.000000,,2013-02-24 13:42:00,
2013-02-24 07:13:00,23.0,20.0,-100.00,NE,44,3.0,9.0,89,0.00,,,0.35,0.000000,,2013-02-24 14:13:00,
2013-02-24 07:23:00,23.0,20.0,-100.00,NE,44,3.0,9.0,89,0.00,,,0.35,0.000000,,2013-02-24 14:23:00,
2013-02-24 07:32:00,23.0,20.0,-100.00,NE,44,3.0,9.0,89,0.00,,,0.35,0.000000,,2013-02-24 14:32:00,
2013-02-24 08:02:00,23.0,19.0,-100.00,NE,44,5.0,10.0,84,0.00,,,0.35,1.000000,,2013-02-24 15:02:00,
2013-02-24 08:12:00,23.0,19.0,-100.00,NE,44,5.0,10.0,84,0.00,,,0.35,1.000000,,2013-02-24 15:12:00,
2013-02-24 08:22:00,23.0,19.0,-100.00,NE,44,5.0,10.0,84,0.00,,,0.35,1.000000,,2013-02-24 15:22:00,
2013-02-24 08:31:00,23.0,19.0,-100.00,NE,44,5.0,10.0,84,0.00,,,0.35,1.000000,,2013-02-24 15:31:00,
2013-02-24 08:41:00,23.0,19.0,-100.00,NE,44,5.0,10.0,84,0.00,,,0.35,1.000000,,2013-02-24 15:41:00,
2013-02-24 09:01:00,28.0,21.0,-100.00,North,8,2.0,10.0,75,0.00,,,0.35,38.000000,,2013-02-24 16:01:00,
2013-02-24 10:01:00,32.0,23.0,-100.00,South,191,1.0,7.0,69,0.00,,,0.35,76.000000,,2013-02-24 17:01:00,
2013-02-24 10:21:00,32.0,23.0,-100.00,South,191,1.0,7.0,69,0.00,,,0.35,76.000000,,2013-02-24 17:21:00,
2013-02-24 10:32:00,32.0,23.0,-100.00,South,191,1.0,7.0,69,0.00,,,0.35,76.000000,,2013-02-24 17:32:00,
2013-02-24 10:41:00,32.0,23.0,-100.00,South,191,1.0,7.0,69,0.00,,,0.35,76.000000,,2013-02-24 17:41:00,
2013-02-24 11:01:00,40.0,26.0,-100.00,SSW,208,0.0,5.0,58,0.14,,,0.43,305.000000,,2013-02-24 18:01:00,
2013-02-24 12:01:00,42.0,29.0,-100.00,South,187,1.0,3.0,59,-99.99,,,0.39,462.000000,,2013-02-24 19:01:00,
2013-02-24 13:02:00,36.0,23.0,-100.00,SW,229,3.0,6.0,60,-99.99,,,0.30,508.000000,,2013-02-24 20:02:00,
2013-02-24 13:11:00,36.0,23.0,-100.00,SW,229,3.0,6.0,60,-99.99,,,0.30,508.000000,,2013-02-24 20:11:00,
2013-02-24 13:21:00,36.0,23.0,-100.00,SW,229,3.0,6.0,60,-99.99,,,0.30,508.000000,,2013-02-24 20:21:00,
2013-02-24 13:31:00,36.0,23.0,-100.00,SW,229,3.0,6.0,60,-99.99,,,0.30,508.000000,,2013-02-24 20:31:00,
2013-02-24 13:41:00,36.0,23.0,-100.00,SW,229,3.0,6.0,60,-99.99,,,0.30,508.000000,,2013-02-24 20:41:00,
2013-02-24 14:01:00,35.0,24.0,-100.00,SSW,196,4.0,8.0,63,0.00,,,0.27,529.000000,,2013-02-24 21:01:00,
2013-02-24 14:11:00,35.0,24.0,-100.00,SSW,196,4.0,8.0,63,0.00,,,0.27,529.000000,,2013-02-24 21:11:00,
2013-02-24 14:21:00,35.0,24.0,-100.00,SSW,196,4.0,8.0,63,0.00,,,0.27,529.000000,,2013-02-24 21:21:00,
2013-02-24 14:32:00,35.0,24.0,-100.00,SSW,196,4.0,8.0,63,0.00,,,0.27,529.000000,,2013-02-24 21:32:00,
2013-02-24 14:41:00,35.0,24.0,-100.00,SSW,196,4.0,8.0,63,0.00,,,0.27,529.000000,,2013-02-24 21:41:00,
2013-02-24 15:01:00,38.0,24.0,-100.00,SSE,160,3.0,7.0,57,0.00,,,0.27,529.000000,,2013-02-24 22:01:00,
2013-02-24 15:11:00,38.0,24.0,-100.00,SSE,160,3.0,7.0,57,0.00,,,0.27,529.000000,,2013-02-24 22:11:00,
2013-02-24 15:21:00,38.0,24.0,-100.00,SSE,160,3.0,7.0,57,0.00,,,0.27,529.000000,,2013-02-24 22:21:00,
2013-02-24 15:31:00,38.0,24.0,-100.00,SSE,160,3.0,7.0,57,0.00,,,0.27,529.000000,,2013-02-24 22:31:00,
2013-02-24 15:41:00,38.0,24.0,-100.00,SSE,160,3.0,7.0,57,0.00,,,0.27,529.000000,,2013-02-24 22:41:00,
2013-02-24 16:02:00,37.0,23.0,-100.00,SSE,161,4.0,9.0,56,0.00,,,0.27,465.000000,,2013-02-24 23:02:00,
2013-02-24 16:11:00,37.0,23.0,-100.00,SSE,161,4.0,9.0,56,0.00,,,0.27,465.000000,,2013-02-24 23:11:00,
2013-02-24 16:21:00,37.0,23.0,-100.00,SSE,161,4.0,9.0,56,0.00,,,0.27,465.000000,,2013-02-24 23:21:00,
2013-02-24 16:31:00,37.0,23.0,-100.00,SSE,161,4.0,9.0,56,0.00,,,0.27,465.000000,,2013-02-24 23:31:00,
2013-02-24 16:41:00,37.0,23.0,-100.00,SSE,161,4.0,9.0,56,0.00,,,0.27,465.000000,,2013-02-24 23:41:00,
2013-02-24 17:01:00,36.0,22.0,-100.00,South,175,4.0,7.0,57,0.00,,,0.27,346.000000,,2013-02-25 00:01:00,
2013-02-24 17:11:00,36.0,22.0,-100.00,South,175,4.0,7.0,57,0.00,,,0.27,346.000000,,2013-02-25 00:11:00,
2013-02-24 17:21:00,36.0,22.0,-100.00,South,175,4.0,7.0,57,0.00,,,0.27,346.000000,,2013-02-25 00:21:00,
2013-02-24 17:31:00,36.0,22.0,-100.00,South,175,4.0,7.0,57,0.00,,,0.27,346.000000,,2013-02-25 00:31:00,
2013-02-24 17:41:00,36.0,22.0,-100.00,South,175,4.0,7.0,57,0.00,,,0.27,346.000000,,2013-02-25 00:41:00,
2013-02-24 18:01:00,34.0,23.0,-100.00,ESE,120,2.0,6.0,64,0.00,,,0.27,193.000000,,2013-02-25 01:01:00,
2013-02-24 18:11:00,34.0,23.0,-100.00,ESE,120,2.0,6.0,64,0.00,,,0.27,193.000000,,2013-02-25 01:11:00,
2013-02-24 18:21:00,34.0,23.0,-100.00,ESE,120,2.0,6.0,64,0.00,,,0.27,193.000000,,2013-02-25 01:21:00,
2013-02-24 18:31:00,34.0,23.0,-100.00,ESE,120,2.0,6.0,64,0.00,,,0.27,193.000000,,2013-02-25 01:31:00,
2013-02-24 18:41:00,34.0,23.0,-100.00,ESE,120,2.0,6.0,64,0.00,,,0.27,193.000000,,2013-02-25 01:41:00,
2013-02-24 19:01:00,29.0,22.0,-100.00,ENE,66,3.0,4.0,75,0.00,,,0.27,21.000000,,2013-02-25 02:01:00,
2013-02-24 19:11:00,29.0,22.0,-100.00,ENE,66,3.0,4.0,75,0.00,,,0.27,21.000000,,2013-02-25 02:11:00,
2013-02-24 19:21:00,29.0,22.0,-100.00,ENE,66,3.0,4.0,75,0.00,,,0.27,21.000000,,2013-02-25 02:21:00,
2013-02-24 19:31:00,29.0,22.0,-100.00,ENE,66,3.0,4.0,75,0.00,,,0.27,21.000000,,2013-02-25 02:31:00,
2013-02-24 19:41:00,29.0,22.0,-100.00,ENE,66,3.0,4.0,75,0.00,,,0.27,21.000000,,2013-02-25 02:41:00,
2013-02-24 20:01:00,29.0,20.0,-100.00,NE,43,4.0,6.0,69,0.00,,,0.27,0.000000,,2013-02-25 03:01:00,
2013-02-24 20:11:00,29.0,20.0,-100.00,NE,43,4.0,6.0,69,0.00,,,0.27,0.000000,,2013-02-25 03:11:00,
2013-02-24 20:21:00,29.0,20.0,-100.00,NE,43,4.0,6.0,69,0.00,,,0.27,0.000000,,2013-02-25 03:21:00,
2013-02-24 20:31:00,29.0,20.0,-100.00,NE,43,4.0,6.0,69,0.00,,,0.27,0.000000,,2013-02-25 03:31:00,
2013-02-24 20:41:00,29.0,20.0,-100.00,NE,43,4.0,6.0,69,0.00,,,0.27,0.000000,,2013-02-25 03:41:00,
2013-02-24 21:01:00,27.0,20.0,-100.00,ESE,110,1.0,7.0,73,0.00,,,0.27,0.000000,,2013-02-25 04:01:00,
2013-02-24 21:11:00,27.0,20.0,-100.00,ESE,110,1.0,7.0,73,0.00,,,0.27,0.000000,,2013-02-25 04:11:00,
2013-02-24 21:21:00,27.0,20.0,-100.00,ESE,110,1.0,7.0,73,0.00,,,0.27,0.000000,,2013-02-25 04:21:00,
2013-02-24 21:31:00,27.0,20.0,-100.00,ESE,110,1.0,7.0,73,0.00,,,0.27,0.000000,,2013-02-25 04:31:00,
2013-02-24 21:41:00,27.0,20.0,-100.00,ESE,110,1.0,7.0,73,0.00,,,0.27,0.000000,,2013-02-25 04:41:00,
2013-02-24 22:01:00,27.0,20.0,-100.00,NNE,25,4.0,8.0,73,0.00,,,0.27,0.000000,,2013-02-25 05:01:00,
2013-02-24 22:11:00,27.0,20.0,-100.00,NNE,25,4.0,8.0,73,0.00,,,0.27,0.000000,,2013-02-25 05:11:00,
2013-02-24 22:22:00,27.0,20.0,-100.00,NNE,25,4.0,8.0,73,0.00,,,0.27,0.000000,,2013-02-25 05:22:00,
2013-02-24 22:31:00,27.0,20.0,-100.00,NNE,25,4.0,8.0,73,0.00,,,0.27,0.000000,,2013-02-25 05:31:00,
2013-02-24 22:41:00,27.0,20.0,-100.00,NNE,25,4.0,8.0,73,0.00,,,0.27,0.000000,,2013-02-25 05:41:00,
2013-02-24 23:02:00,26.0,20.0,-100.00,NW,315,1.0,7.0,77,0.00,,,0.27,0.000000,,2013-02-25 06:02:00,
2013-02-24 23:11:00,26.0,20.0,-100.00,NW,315,1.0,7.0,77,0.00,,,0.27,0.000000,,2013-02-25 06:11:00,
2013-02-24 23:21:00,26.0,20.0,-100.00,NW,315,1.0,7.0,77,0.00,,,0.27,0.000000,,2013-02-25 06:21:00,
2013-02-24 23:31:00,26.0,20.0,-100.00,NW,315,1.0,7.0,77,0.00,,,0.27,0.000000,,2013-02-25 06:31:00,
2013-02-24 23:41:00,26.0,20.0,-100.00,NW,315,1.0,7.0,77,0.00,,,0.27,0.000000,,2013-02-25 06:41:00,